Latest Weather Observations for Hobart

IDT60801

Issued at 9:51 am EDT Thursday 23 January 2020 (issued every 10 minutes, with the page automatically refreshed every 10 minutes)

About weather observations | Map of weather stations | Latest weather observations for TAS | Other Formats
Station Details ID: 094029 Name: HOBART (ELLERSLIE ROAD) Lat: -42.89 Lon: 147.33 Height: 50.5 m
Data from the previous 72 hours. | See also: Recent months at Hobart
Date/Time
EDT
Temp
°C
App
Temp
°C
Dew
Point
°C
Rel
Hum
%
Delta-T
°C
Wind Press
QNH
hPa
Press
MSL
hPa
Rain since
9am
mm
Dir  Spd
km/h
Gust
km/h
Spd
kts
Gust
kts
23/09:30am 14.6 11.6 10.6 77 2.1 NNW 17 28 9 15 991.7 991.6 0.0
23/09:00am 14.5 11.1 10.5 77 2.1 NW 19 30 10 16 992.1 992.0 25.2
23/08:30am 14.5 11.6 12.2 86 1.3 NW 19 30 10 16 992.3 992.2 25.2
23/08:00am 14.6 11.8 13.1 91 0.8 NNW 20 28 11 15 992.3 992.2 25.2
23/07:30am 14.6 12.4 13.3 92 0.7 NNW 17 20 9 11 992.0 991.9 25.0
23/07:00am 14.7 12.9 13.2 91 0.8 NNW 15 22 8 12 992.5 992.4 24.4
23/06:30am 14.6 12.7 13.1 91 0.8 NNW 15 22 8 12 992.5 992.4 23.4
23/06:00am 14.6 11.9 13.0 90 0.9 N 19 28 10 15 992.6 992.5 23.0
23/05:30am 14.5 11.9 13.2 92 0.7 NNW 19 26 10 14 992.5 992.4 22.6
23/05:00am 14.3 12.1 13.3 94 0.6 NNW 17 24 9 13 992.9 992.8 22.0
23/04:30am 14.2 12.0 13.4 95 0.4 NNW 17 24 9 13 993.3 993.2 20.8
23/04:00am 14.1 11.3 13.1 94 0.6 NNW 20 32 11 17 993.6 993.5 19.8
23/03:30am 14.2 11.9 13.1 93 0.6 N 17 24 9 13 994.2 994.1 18.2
23/03:00am 14.5 12.8 13.5 94 0.6 N 15 20 8 11 994.3 994.2 16.8
23/02:30am 14.8 12.3 13.5 92 0.7 N 19 28 10 15 995.0 994.9 14.8
23/02:00am 15.2 14.4 14.1 93 0.6 N 11 17 6 9 995.8 995.7 11.2
23/01:30am 15.9 15.9 15.1 95 0.5 NNE 9 13 5 7 996.2 996.1 8.2
23/01:00am 16.0 15.6 15.2 95 0.5 NNE 11 17 6 9 997.4 997.3 5.4
23/12:30am 16.1 14.5 15.1 94 0.6 ENE 17 20 9 11 996.9 996.8 2.0
23/12:00am 16.4 14.7 14.8 90 0.9 ESE 17 22 9 12 996.9 996.8 0.8
 
Date/Time
EDT
Temp
°C
App
Temp
°C
Dew
Point
°C
Rel
Hum
%
Delta-T
°C
Wind Press
QNH
hPa
Press
MSL
hPa
Rain since
9am
mm
Dir  Spd
km/h
Gust
km/h
Spd
kts
Gust
kts
22/11:30pm 17.4 15.6 14.5 83 1.7 ENE 17 24 9 13 997.4 997.3 0.0
22/11:00pm 18.8 17.1 12.5 67 3.5 E 13 22 7 12 997.2 997.1 0.0
22/10:30pm 22.6 18.6 11.7 50 6.1 WNW 24 43 13 23 996.2 996.1 0.0
22/10:00pm 23.9 21.0 10.9 44 7.3 NNW 17 28 9 15 996.1 996.0 0.0
22/09:30pm 24.1 20.5 10.7 43 7.5 NNW 20 33 11 18 995.8 995.7 0.0
22/09:00pm 24.3 20.7 9.8 40 8.0 NNW 19 37 10 20 995.4 995.3 0.0
22/08:30pm 24.8 19.7 9.1 37 8.5 N 26 39 14 21 995.2 995.1 0.0
22/08:00pm 25.1 19.2 9.0 36 8.8 N 30 48 16 26 994.8 994.7 0.0
22/07:30pm 25.4 18.5 8.8 35 9.0 NNW 35 50 19 27 994.8 994.7 0.0
22/07:00pm 26.2 18.5 8.7 33 9.6 N 39 69 21 37 994.8 994.7 0.0
22/06:30pm 26.7 19.9 9.1 33 9.7 N 35 59 19 32 995.0 994.9 0.0
22/06:00pm 27.2 19.6 9.1 32 10.0 N 39 61 21 33 995.1 995.0 0.0
22/05:30pm 27.1 19.5 9.0 32 9.9 N 39 67 21 36 995.2 995.1 0.0
22/05:03pm 27.5 21.3 9.3 32 10.1 N 32 52 17 28 995.5 995.4 0.0
22/05:00pm 27.1 20.9 9.5 33 9.8 N 32 48 17 26 995.5 995.4 0.0
22/04:30pm 27.0 19.9 9.4 33 9.7 N 37 63 20 34 995.7 995.6 0.0
22/04:00pm 28.2 20.6 9.0 30 10.7 N 39 65 21 35 995.5 995.4 0.0
22/03:32pm 28.8 22.9 9.0 29 11.0 N 30 48 16 26 995.8 995.7 0.0
22/03:30pm 28.7 22.8 8.9 29 10.9 N 30 46 16 25 995.8 995.7 0.0
22/03:02pm 28.9 23.5 8.0 27 11.4 N 26 50 14 27 996.2 996.1 0.0
22/03:00pm 29.1 23.7 8.2 27 11.5 N 26 50 14 27 996.3 996.2 0.0
22/02:30pm 28.1 23.2 8.4 29 10.8 NNE 24 37 13 20 997.0 996.9 0.0
22/02:00pm 27.5 23.8 9.3 32 10.1 NE 19 28 10 15 998.0 997.9 0.0
22/01:30pm 26.0 21.9 8.5 33 9.5 N 20 35 11 19 998.7 998.6 0.0
22/01:00pm 24.9 20.3 8.0 34 9.1 NNE 22 32 12 17 999.4 999.3 0.0
22/12:30pm 22.3 16.8 6.1 35 8.2 NNE 24 35 13 19 999.7 999.6 0.0
22/12:00pm 22.6 17.5 6.0 34 8.5 NNW 22 37 12 20 999.9 999.8 0.0
22/11:30am 22.1 17.8 7.9 40 7.4 NNW 20 28 11 15 1000.6 1000.5 0.0
22/11:00am 21.3 17.0 7.9 42 7.0 NNW 20 28 11 15 1001.0 1000.9 0.0
22/10:30am 20.8 16.1 7.8 43 6.7 NNW 22 33 12 18 1001.2 1001.1 0.0
22/10:00am 20.1 15.1 8.1 46 6.3 N 24 35 13 19 1001.8 1001.7 0.0
22/09:30am 20.3 16.1 8.3 46 6.3 N 20 30 11 16 1002.2 1002.1 0.0
22/09:00am 17.9 14.2 9.3 57 4.5 N 19 30 10 16 1002.6 1002.5 0.0
22/08:30am 17.1 15.2 10.5 65 3.5 NNW 11 17 6 9 1002.9 1002.8 0.0
22/08:00am 15.6 12.5 10.4 71 2.8 NNW 17 20 9 11 1002.9 1002.8 0.0
22/07:30am 14.8 12.4 10.0 73 2.5 N 13 19 7 10 1003.0 1002.9 0.0
22/07:00am 13.7 10.8 9.7 77 2.1 N 15 20 8 11 1003.1 1003.0 0.0
22/06:30am 13.3 10.8 9.7 79 1.8 NNW 13 20 7 11 1003.2 1003.1 0.0
22/06:00am 13.0 9.3 9.6 80 1.7 NNW 19 24 10 13 1003.2 1003.1 0.0
22/05:30am 13.2 10.3 9.5 78 1.9 N 15 20 8 11 1003.3 1003.2 0.0
22/05:00am 13.4 11.2 9.5 77 2.0 N 11 17 6 9 1003.7 1003.6 0.0
22/04:30am 13.7 11.6 9.7 77 2.1 NNE 11 15 6 8 1003.7 1003.6 0.0
22/04:00am 14.4 12.6 9.4 72 2.6 N 9 13 5 7 1004.0 1003.9 0.0
22/03:30am 14.2 12.0 9.4 73 2.5 N 11 13 6 7 1004.2 1004.1 0.0
22/03:00am 14.1 11.8 9.1 72 2.6 N 11 15 6 8 1004.6 1004.5 0.0
22/02:30am 14.4 12.5 9.2 71 2.7 N 9 13 5 7 1005.0 1004.9 0.0
22/02:00am 14.3 12.4 9.1 71 2.7 NNE 9 11 5 6 1005.3 1005.2 0.0
22/01:30am 14.1 12.8 9.1 72 2.5 N 6 9 3 5 1005.6 1005.5 0.0
22/01:00am 13.9 12.3 8.9 72 2.5 NW 7 9 4 5 1006.1 1006.0 0.0
22/12:30am 14.1 12.7 8.9 71 2.6 NNE 6 9 3 5 1006.4 1006.3 0.0
22/12:00am 14.1 13.5 8.9 71 2.6 NE 2 6 1 3 1006.7 1006.6 0.0
 
Date/Time
EDT
Temp
°C
App
Temp
°C
Dew
Point
°C
Rel
Hum
%
Delta-T
°C
Wind Press
QNH
hPa
Press
MSL
hPa
Rain since
9am
mm
Dir  Spd
km/h
Gust
km/h
Spd
kts
Gust
kts
21/11:30pm 14.2 12.8 9.0 71 2.6 ESE 6 7 3 4 1006.8 1006.7 0.0
21/11:00pm 14.2 12.6 8.8 70 2.7 ESE 7 11 4 6 1007.0 1006.9 0.0
21/10:30pm 14.2 12.2 8.8 70 2.7 SSE 9 11 5 6 1007.4 1007.3 0.0
21/10:00pm 14.2 12.2 8.8 70 2.7 SE 9 13 5 7 1007.4 1007.3 0.0
21/09:30pm 14.3 11.7 9.5 73 2.5 ESE 13 19 7 10 1007.4 1007.3 0.0
21/09:00pm 14.5 10.9 9.7 73 2.5 SE 19 26 10 14 1007.2 1007.1 0.0
21/08:30pm 14.6 11.3 9.6 72 2.6 SE 17 26 9 14 1007.3 1007.2 0.0
21/08:00pm 14.5 10.7 9.1 70 2.8 SSE 19 28 10 15 1006.9 1006.8 0.0
21/07:30pm 14.9 10.7 9.7 71 2.7 SSE 22 32 12 17 1006.8 1006.7 0.0
21/07:00pm 14.9 10.0 9.9 72 2.6 SE 26 37 14 20 1006.5 1006.4 0.0
21/06:30pm 15.3 10.1 10.1 71 2.7 SE 28 39 15 21 1006.1 1006.0 0.0
21/06:00pm 15.8 10.8 9.7 67 3.2 SE 26 37 14 20 1005.9 1005.8 0.0
21/05:30pm 16.5 11.3 10.4 67 3.2 SE 28 37 15 20 1005.5 1005.4 0.0
21/05:00pm 16.6 11.3 10.0 65 3.5 SE 28 35 15 19 1005.5 1005.4 0.0
21/04:30pm 16.9 11.7 10.1 64 3.6 SE 28 37 15 20 1005.5 1005.4 0.0
21/04:00pm 16.8 10.8 10.0 64 3.6 SE 32 41 17 22 1005.4 1005.3 0.0
21/03:30pm 17.1 11.3 9.5 61 4.0 SE 30 39 16 21 1005.4 1005.3 0.0
21/03:00pm 17.5 12.2 9.7 60 4.1 SE 28 35 15 19 1005.2 1005.1 0.0
21/02:30pm 17.8 13.1 9.4 58 4.4 SE 24 32 13 17 1005.3 1005.2 0.0
21/02:00pm 17.5 12.9 9.7 60 4.1 SE 24 33 13 18 1005.4 1005.3 0.0
21/01:30pm 17.5 14.0 8.9 57 4.5 ESE 17 28 9 15 1005.5 1005.4 0.0
21/01:00pm 17.4 13.5 8.5 56 4.6 SE 19 24 10 13 1005.7 1005.6 0.0
21/12:30pm 16.9 13.0 9.3 61 4.0 ESE 20 28 11 15 1005.9 1005.8 0.0
21/12:00pm 16.4 12.4 9.1 62 3.8 ESE 20 30 11 16 1006.4 1006.3 0.0
21/11:30am 16.4 13.7 9.1 62 3.8 SE 13 19 7 10 1006.7 1006.6 0.0
21/11:00am 15.2 11.7 8.9 66 3.2 S 17 24 9 13 1007.0 1006.9 0.0
21/10:30am 15.5 13.0 9.8 69 3.0 SSW 13 22 7 12 1007.3 1007.2 0.0
21/10:00am 15.1 13.0 9.9 71 2.7 S 11 22 6 12 1007.4 1007.3 0.0
21/09:30am 14.7 12.1 9.5 71 2.7 SSW 13 22 7 12 1007.3 1007.2 0.0
21/09:00am 14.3 10.5 9.7 74 2.4 SSW 20 30 11 16 1007.0 1006.9 0.0
21/08:30am 14.0 10.7 10.8 81 1.7 SSW 19 26 10 14 1006.7 1006.6 0.0
21/08:00am 13.2 8.9 10.6 84 1.4 S 24 32 13 17 1006.4 1006.3 0.0
21/07:30am 14.3 11.0 9.5 73 2.5 S 17 28 9 15 1006.0 1005.9 0.0
21/07:00am 14.0 12.0 10.0 77 2.1 S 11 15 6 8 1005.7 1005.6 0.0
21/06:30am 13.6 11.2 10.2 80 1.8 SSE 13 17 7 9 1005.7 1005.6 0.0
21/06:00am 13.5 11.1 10.1 80 1.8 SSE 13 19 7 10 1005.6 1005.5 0.0
21/05:30am 13.7 9.9 9.7 77 2.1 S 20 26 11 14 1005.5 1005.4 0.0
21/05:00am 13.9 10.2 9.5 75 2.3 S 19 26 10 14 1005.4 1005.3 0.0
21/04:30am 13.9 10.6 9.5 75 2.3 S 17 22 9 12 1005.6 1005.5 0.0
21/04:00am 14.1 11.5 9.5 74 2.4 S 13 19 7 10 1005.7 1005.6 0.0
21/03:30am 14.1 11.5 9.5 74 2.4 S 13 19 7 10 1006.1 1006.0 0.0
21/03:00am 14.2 11.6 9.4 73 2.5 SSW 13 19 7 10 1006.3 1006.2 0.0
21/02:30am 14.3 11.7 9.3 72 2.6 S 13 17 7 9 1006.6 1006.5 0.0
21/02:00am 14.3 11.6 9.1 71 2.7 S 13 19 7 10 1006.7 1006.6 0.0
21/01:30am 14.2 10.4 9.0 71 2.6 SSE 19 24 10 13 1006.9 1006.8 0.0
21/01:00am 14.1 10.7 9.1 72 2.6 SSE 17 22 9 12 1006.6 1006.5 0.0
21/12:30am 14.1 11.1 9.1 72 2.5 S 15 22 8 12 1006.7 1006.6 0.0
21/12:00am 14.1 10.7 9.3 73 2.5 SSE 17 22 9 12 1007.0 1006.9 0.0
 
Date/Time
EDT
Temp
°C
App
Temp
°C
Dew
Point
°C
Rel
Hum
%
Delta-T
°C
Wind Press
QNH
hPa
Press
MSL
hPa
Rain since
9am
mm
Dir  Spd
km/h
Gust
km/h
Spd
kts
Gust
kts
20/11:30pm 14.2 11.7 9.8 75 2.3 SSE 13 20 7 11 1007.1 1007.0 0.0
20/11:00pm 14.2 11.8 10.0 76 2.2 S 13 24 7 13 1007.6 1007.5 0.0
20/10:30pm 14.3 10.5 9.9 75 2.3 S 20 32 11 17 1007.8 1007.7 0.0
20/10:00pm 14.5 11.3 10.1 75 2.3 SSE 17 26 9 14 1007.9 1007.8 0.0
20/09:30pm 14.7 11.9 10.1 74 2.4 SSE 15 22 8 12 1007.8 1007.7 0.0
20/09:00pm 14.8 11.2 9.8 72 2.6 SSE 19 30 10 16 1007.7 1007.6 0.0
20/08:30pm 15.0 11.9 10.4 74 2.4 SSE 17 26 9 14 1007.7 1007.6 0.0
20/08:00pm 15.0 10.7 10.8 76 2.2 SE 24 37 13 20 1007.6 1007.5 0.0
20/07:30pm 15.3 11.0 10.9 75 2.3 SSE 24 35 13 19 1007.7 1007.6 0.0
20/07:00pm 15.5 10.3 10.3 71 2.7 SE 28 37 15 20 1007.5 1007.4 0.0
20/06:30pm 15.7 10.2 10.5 71 2.8 SE 30 43 16 23 1007.0 1006.9 0.0
20/06:00pm 16.1 11.4 10.6 70 2.9 SE 26 37 14 20 1007.0 1006.9 0.0
20/05:30pm 16.3 10.4 10.6 69 3.0 SE 32 41 17 22 1007.2 1007.1 0.0
20/05:00pm 16.5 11.8 10.8 69 3.1 SE 26 35 14 19 1007.4 1007.3 0.0
20/04:30pm 16.8 12.5 10.6 67 3.3 SSE 24 35 13 19 1007.6 1007.5 0.0
20/04:00pm 17.5 13.4 11.3 67 3.4 S 24 37 13 20 1007.7 1007.6 0.0
20/03:30pm 16.4 11.7 10.5 68 3.1 SSE 26 35 14 19 1008.1 1008.1 0.0
20/03:00pm 16.6 13.1 10.9 69 3.1 SSE 20 32 11 17 1008.6 1008.6 0.0
20/02:30pm 16.3 12.0 10.8 70 2.9 SE 24 37 13 20 1008.9 1008.9 0.0
20/02:00pm 16.9 11.5 11.0 68 3.2 SE 30 39 16 21 1009.0 1009.0 0.0
20/01:30pm 17.1 12.8 10.9 67 3.3 SE 24 32 13 17 1009.3 1009.3 0.0
20/01:00pm 16.8 13.2 10.6 67 3.3 SE 20 30 11 16 1009.7 1009.7 0.0
20/12:30pm 16.7 13.1 10.5 67 3.3 SSE 20 32 11 17 1010.2 1010.2 0.0
20/12:00pm 16.5 12.7 9.9 65 3.5 SSE 20 28 11 15 1010.4 1010.3 0.0
20/11:30am 17.0 13.4 9.9 63 3.7 SSE 19 26 10 14 1010.5 1010.4 0.0
20/11:00am 16.7 13.0 10.1 65 3.5 SSE 20 30 11 16 1010.6 1010.5 0.0
20/10:30am 17.4 14.0 10.5 64 3.7 S 19 26 10 14 1011.0 1010.9 0.0
20/10:00am 15.2 12.1 10.2 72 2.6 SSE 17 26 9 14 1011.1 1011.0 0.0

Other formats

Comma delimited format used in spreadsheet applications
http://www.bom.gov.au/fwo/IDT60801/IDT60801.94970.axf

JavaScript Object Notation format (JSON) in row-major order
http://www.bom.gov.au/fwo/IDT60801/IDT60801.94970.json

Data quality

Most of these data are generated automatically and are frequently updated. Quality checks on data are not normally performed. It is possible for incorrect values to appear. Refer to information at About Latest Weather Observations and please check the disclaimer before using these data.